Terminal Aerodrome Forecast
Issued by NWS Omaha/Valley, NE

Home | Current Version | Previous Version | Text Only | Print | Product List | Glossary On
Versions: 1 2 3 4 5 6 7 8 9 10 11 12 13 14 15 16 17 18 19 20 21 22 23 24 25 26 27 28 29
000
FTUS43 KOAX 191120
TAFOFK
TAF
KOFK 191120Z 1912/2012 20013KT P6SM SCT250 WS015/23044KT
     FM191600 22015KT P6SM BKN250
     FM192200 28008KT P6SM SCT250
     FM200100 26005KT P6SM SCT250=

USA.gov is the U.S. government's official web portal to all federal, state and local government web resources and services.